Time;durP1;ratioP1;P1;durP2;ratioP2;P2;SDS_P1;SDS_P2;PMS_P1;PMS_P2;Temp;Humidity;BMP_temperature;BMP_pressure;BME280_temperature;BME280_humidity;BME280_pressure;Samples;Min_cycle;Max_cycle;Signal;HPM_P1;HPM_P2
2021/09/10 00:00:15;;;;;;;26.98;18.30;;;20.20;99.90;;;;;;5035371;28;20046;-68
2021/09/10 00:02:41;;;;;;;23.48;17.27;;;20.10;99.90;;;;;;5039777;28;20079;-69
2021/09/10 00:05:08;;;;;;;21.48;16.30;;;20.10;99.90;;;;;;5037020;28;20128;-69
2021/09/10 00:07:34;;;;;;;18.08;14.95;;;20.10;99.90;;;;;;5037954;28;20092;-69
2021/09/10 00:09:59;;;;;;;22.85;15.95;;;20.10;99.90;;;;;;5041016;28;20034;-69
2021/09/10 00:12:25;;;;;;;19.77;15.93;;;20.10;99.90;;;;;;5035813;28;20034;-68
2021/09/10 00:14:51;;;;;;;19.20;14.85;;;20.10;99.90;;;;;;5042682;28;20033;-68
2021/09/10 00:17:17;;;;;;;19.58;14.57;;;20.10;99.90;;;;;;5035734;28;20073;-69
2021/09/10 00:19:43;;;;;;;25.00;14.45;;;20.10;99.90;;;;;;5042216;28;20041;-70
2021/09/10 00:22:08;;;;;;;22.60;16.23;;;20.10;99.90;;;;;;5034577;28;20103;-70
2021/09/10 00:24:36;;;;;;;21.83;14.63;;;20.10;99.90;;;;;;5040469;28;20127;-69
2021/09/10 00:27:02;;;;;;;18.13;13.55;;;20.10;99.90;;;;;;5044197;28;20103;-70
2021/09/10 00:29:27;;;;;;;20.55;15.73;;;20.10;99.90;;;;;;5040925;28;20099;-68
2021/09/10 00:31:53;;;;;;;21.83;15.27;;;20.00;99.90;;;;;;5033201;28;20045;-69
2021/09/10 00:34:19;;;;;;;22.70;15.73;;;20.10;99.90;;;;;;5040964;28;20049;-69
2021/09/10 00:36:45;;;;;;;21.80;15.90;;;20.00;99.90;;;;;;5032954;28;20065;-69
2021/09/10 00:39:17;;;;;;;23.77;17.30;;;20.00;99.90;;;;;;5040823;28;20060;-69
2021/09/10 00:41:43;;;;;;;28.02;18.42;;;20.00;99.90;;;;;;5033006;28;20056;-69
2021/09/10 00:44:09;;;;;;;26.35;19.80;;;20.00;99.90;;;;;;5040117;28;20041;-69
2021/09/10 00:46:35;;;;;;;25.88;18.25;;;20.00;99.90;;;;;;5032963;28;20073;-70
2021/09/10 00:49:01;;;;;;;25.17;18.85;;;20.00;99.90;;;;;;5040273;28;20042;-70
2021/09/10 00:51:27;;;;;;;26.77;18.58;;;20.00;99.90;;;;;;5033979;28;20052;-69
2021/09/10 00:53:53;;;;;;;27.90;20.13;;;20.00;99.90;;;;;;5038921;28;20076;-69
2021/09/10 00:56:18;;;;;;;32.00;19.88;;;19.90;99.90;;;;;;5034855;28;20049;-69
2021/09/10 00:58:44;;;;;;;29.17;19.17;;;19.90;99.90;;;;;;5036700;28;20045;-70
2021/09/10 01:01:10;;;;;;;36.13;19.85;;;19.90;99.90;;;;;;5036093;28;20046;-70
2021/09/10 01:03:36;;;;;;;24.40;18.02;;;19.90;99.90;;;;;;5034517;28;20053;-69
2021/09/10 01:06:04;;;;;;;27.75;18.85;;;19.90;99.90;;;;;;5040462;28;20049;-68
2021/09/10 01:08:31;;;;;;;29.20;18.98;;;19.90;99.90;;;;;;5039273;28;20053;-69
2021/09/10 01:11:00;;;;;;;30.67;18.77;;;19.90;99.90;;;;;;5037123;28;20401;-70
2021/09/10 01:13:26;;;;;;;26.13;17.73;;;19.90;99.90;;;;;;5040102;28;20091;-69
2021/09/10 01:15:52;;;;;;;26.33;17.70;;;19.90;99.90;;;;;;5035888;28;20042;-69
2021/09/10 01:18:20;;;;;;;20.50;16.75;;;19.90;99.90;;;;;;5042047;28;20052;-70
2021/09/10 01:20:48;;;;;;;28.48;17.65;;;19.90;99.90;;;;;;5033343;28;20053;-68
2021/09/10 01:23:14;;;;;;;29.55;16.85;;;19.90;99.90;;;;;;5042176;28;20050;-68
2021/09/10 01:25:39;;;;;;;26.60;18.17;;;19.90;99.90;;;;;;5034803;28;20106;-68
2021/09/10 01:28:05;;;;;;;23.13;16.85;;;19.90;99.90;;;;;;5041076;28;20045;-68
2021/09/10 01:30:34;;;;;;;26.20;17.10;;;19.90;99.90;;;;;;5043110;28;20541;-69
2021/09/10 01:33:01;;;;;;;24.45;15.55;;;19.90;99.90;;;;;;5040928;28;20041;-69
2021/09/10 01:35:27;;;;;;;25.95;15.88;;;19.90;99.90;;;;;;5033002;28;20054;-69
2021/09/10 01:37:54;;;;;;;20.40;14.30;;;19.80;99.90;;;;;;5040340;28;20083;-68
2021/09/10 01:40:20;;;;;;;20.23;14.13;;;19.90;99.90;;;;;;5033175;28;20524;-69
2021/09/10 01:42:46;;;;;;;19.58;13.85;;;19.90;99.90;;;;;;5043255;28;20060;-70
2021/09/10 01:45:13;;;;;;;22.20;14.10;;;19.90;99.90;;;;;;5032858;28;20038;-70
2021/09/10 01:47:39;;;;;;;17.98;12.95;;;19.90;99.90;;;;;;5039964;28;20045;-70
2021/09/10 01:50:09;;;;;;;14.45;11.95;;;19.90;99.90;;;;;;5031830;28;20470;-68
2021/09/10 01:52:36;;;;;;;15.55;12.05;;;19.90;99.90;;;;;;5037477;28;20057;-68
2021/09/10 01:55:02;;;;;;;16.70;11.40;;;19.90;99.90;;;;;;5064095;28;20130;-68
2021/09/10 01:57:27;;;;;;;17.10;11.48;;;19.90;99.90;;;;;;5038559;28;20096;-68
2021/09/10 01:59:53;;;;;;;17.20;10.93;;;19.90;99.90;;;;;;5033151;28;20588;-68
2021/09/10 02:02:19;;;;;;;15.77;11.32;;;19.90;99.90;;;;;;5036517;28;20132;-69
2021/09/10 02:04:44;;;;;;;17.25;10.73;;;19.90;99.90;;;;;;5041484;28;20037;-70
2021/09/10 02:07:10;;;;;;;15.30;11.05;;;19.80;99.90;;;;;;5034333;28;20471;-70
2021/09/10 02:09:36;;;;;;;13.57;10.00;;;19.80;99.90;;;;;;5040296;28;20497;-70
2021/09/10 02:12:03;;;;;;;17.30;10.43;;;19.80;99.90;;;;;;5037817;28;20077;-69
2021/09/10 02:14:30;;;;;;;17.65;9.45;;;19.90;99.90;;;;;;5038523;28;20051;-68
2021/09/10 02:16:56;;;;;;;20.48;12.70;;;19.90;99.90;;;;;;5039264;28;20048;-68
2021/09/10 02:19:21;;;;;;;14.65;10.93;;;19.80;99.90;;;;;;5036445;28;20066;-68
2021/09/10 02:21:47;;;;;;;16.20;10.65;;;19.80;99.90;;;;;;5039991;28;20072;-68
2021/09/10 02:24:13;;;;;;;14.35;10.93;;;19.90;99.90;;;;;;5034600;28;20079;-68
2021/09/10 02:26:38;;;;;;;21.17;14.20;;;19.80;99.90;;;;;;5038290;28;20056;-69
2021/09/10 02:29:04;;;;;;;19.35;15.75;;;19.80;99.90;;;;;;5047090;28;20044;-71
2021/09/10 02:31:30;;;;;;;20.50;15.90;;;19.80;99.90;;;;;;5034731;28;20065;-71
2021/09/10 02:33:56;;;;;;;24.48;16.50;;;19.80;99.90;;;;;;5044307;28;20132;-70
2021/09/10 02:36:22;;;;;;;25.85;17.92;;;19.70;99.90;;;;;;5051336;28;20053;-70
2021/09/10 02:38:47;;;;;;;22.42;17.73;;;19.70;99.90;;;;;;5038863;28;20037;-70
2021/09/10 02:41:14;;;;;;;22.00;17.83;;;19.70;99.90;;;;;;5052804;28;20045;-70
2021/09/10 02:43:39;;;;;;;23.40;17.85;;;19.60;99.90;;;;;;5037166;28;20120;-70
2021/09/10 02:46:05;;;;;;;27.15;20.90;;;19.60;99.90;;;;;;5052094;28;20048;-69
2021/09/10 02:48:31;;;;;;;27.90;19.67;;;19.60;99.90;;;;;;5037253;28;20089;-69
2021/09/10 02:50:56;;;;;;;29.48;20.98;;;19.60;99.90;;;;;;5050646;28;20124;-69
2021/09/10 02:53:22;;;;;;;30.73;21.02;;;19.50;99.90;;;;;;5038263;28;20049;-69
2021/09/10 02:55:48;;;;;;;35.78;22.80;;;19.50;99.90;;;;;;5049172;28;20041;-70
2021/09/10 02:58:13;;;;;;;30.70;23.23;;;19.40;99.90;;;;;;5042497;28;20050;-70
2021/09/10 03:00:39;;;;;;;31.15;23.52;;;19.40;99.90;;;;;;5036736;28;20034;-70
2021/09/10 03:03:05;;;;;;;33.60;25.33;;;19.40;99.90;;;;;;5045967;28;20395;-71
2021/09/10 03:05:31;;;;;;;39.25;24.27;;;19.40;99.90;;;;;;5037367;28;20528;-68
2021/09/10 03:07:58;;;;;;;32.42;23.42;;;19.30;99.90;;;;;;5055725;28;20097;-68
2021/09/10 03:10:24;;;;;;;34.92;22.88;;;19.30;99.90;;;;;;5043862;28;20042;-70
2021/09/10 03:12:50;;;;;;;32.75;23.05;;;19.30;99.90;;;;;;5059745;28;20053;-70
2021/09/10 03:15:16;;;;;;;34.38;23.88;;;19.30;99.90;;;;;;5053809;28;20050;-70
2021/09/10 03:17:42;;;;;;;31.95;23.58;;;19.20;99.90;;;;;;5056758;28;20045;-70
2021/09/10 03:20:09;;;;;;;41.97;24.33;;;19.20;99.90;;;;;;5060301;28;20046;-68
2021/09/10 03:22:35;;;;;;;30.48;22.73;;;19.20;99.90;;;;;;5043823;28;20053;-69
2021/09/10 03:25:02;;;;;;;31.20;25.35;;;19.20;99.90;;;;;;5064076;28;20043;-69
2021/09/10 03:27:28;;;;;;;37.60;24.77;;;19.20;99.90;;;;;;5052231;28;20072;-69
2021/09/10 03:29:54;;;;;;;34.35;26.15;;;19.20;99.90;;;;;;5065489;28;20036;-71
2021/09/10 03:32:20;;;;;;;34.90;24.90;;;19.20;99.90;;;;;;5050461;28;20577;-70
2021/09/10 03:34:45;;;;;;;32.38;24.33;;;19.20;99.90;;;;;;5049625;28;20046;-70
2021/09/10 03:37:13;;;;;;;35.70;26.38;;;19.20;99.90;;;;;;5046671;28;20053;-71
2021/09/10 03:39:39;;;;;;;32.15;24.08;;;19.10;99.90;;;;;;5061062;28;20056;-70
2021/09/10 03:42:06;;;;;;;33.33;25.13;;;19.20;99.90;;;;;;5040198;28;20057;-69
2021/09/10 03:44:32;;;;;;;34.28;22.55;;;19.20;99.90;;;;;;5057276;28;20056;-69
2021/09/10 03:46:59;;;;;;;31.17;22.67;;;19.20;99.90;;;;;;5046496;28;20045;-70
2021/09/10 03:49:26;;;;;;;29.27;23.30;;;19.20;99.90;;;;;;5060228;28;20063;-70
2021/09/10 03:51:51;;;;;;;29.27;19.07;;;19.20;99.90;;;;;;5045219;28;20045;-70
2021/09/10 03:54:17;;;;;;;27.58;20.55;;;19.20;99.90;;;;;;5059546;28;20392;-71
2021/09/10 03:56:43;;;;;;;27.75;20.92;;;19.20;99.90;;;;;;5045019;28;20050;-71
2021/09/10 03:59:08;;;;;;;27.42;20.77;;;19.30;99.90;;;;;;5059505;28;20068;-71
2021/09/10 04:01:34;;;;;;;28.30;19.92;;;19.30;99.90;;;;;;5046991;28;20049;-69
2021/09/10 04:04:00;;;;;;;22.42;18.13;;;19.20;99.90;;;;;;5057327;28;20052;-69
2021/09/10 04:06:25;;;;;;;24.33;18.25;;;19.20;99.90;;;;;;5049455;28;20056;-70
2021/09/10 04:08:51;;;;;;;22.40;18.13;;;19.20;99.90;;;;;;5052470;28;20043;-70
2021/09/10 04:11:17;;;;;;;25.60;19.70;;;19.20;99.90;;;;;;5058765;28;20052;-70
2021/09/10 04:13:42;;;;;;;25.38;17.85;;;19.20;99.90;;;;;;5053125;28;20042;-69
2021/09/10 04:16:08;;;;;;;26.95;18.20;;;19.10;99.90;;;;;;5056638;28;20063;-70
2021/09/10 04:18:34;;;;;;;23.73;17.50;;;19.10;99.90;;;;;;5045331;28;20405;-71
2021/09/10 04:20:59;;;;;;;23.13;18.75;;;19.10;99.90;;;;;;5057868;28;20030;-70
2021/09/10 04:23:25;;;;;;;28.13;19.08;;;19.10;99.90;;;;;;5044584;28;20048;-70
2021/09/10 04:25:51;;;;;;;32.33;21.75;;;19.00;99.90;;;;;;5044044;28;20075;-70
2021/09/10 04:28:16;;;;;;;29.83;21.70;;;19.00;99.90;;;;;;5042970;28;20562;-69
2021/09/10 04:30:42;;;;;;;29.25;21.10;;;19.00;99.90;;;;;;5054695;28;20055;-69
2021/09/10 04:33:08;;;;;;;30.05;21.15;;;18.90;99.90;;;;;;5038652;28;20107;-69
2021/09/10 04:35:33;;;;;;;24.92;19.13;;;18.90;99.90;;;;;;5043943;28;20056;-69
2021/09/10 04:37:59;;;;;;;26.98;20.55;;;18.90;99.90;;;;;;5060937;28;20083;-70
2021/09/10 04:40:25;;;;;;;29.58;20.70;;;18.90;99.90;;;;;;5047093;28;20045;-69
2021/09/10 04:42:50;;;;;;;29.55;20.75;;;18.90;99.90;;;;;;5060936;28;20049;-69
2021/09/10 04:45:16;;;;;;;25.52;18.92;;;18.80;99.90;;;;;;5046707;28;20183;-69
2021/09/10 04:47:42;;;;;;;30.38;21.20;;;18.90;99.90;;;;;;5045541;28;20049;-69
2021/09/10 04:50:08;;;;;;;27.48;19.65;;;18.80;99.90;;;;;;5043081;28;20036;-69
2021/09/10 04:52:35;;;;;;;27.13;19.85;;;18.90;99.90;;;;;;5059183;28;20049;-69
2021/09/10 04:55:00;;;;;;;28.48;22.20;;;18.90;99.90;;;;;;5045198;28;20049;-69
2021/09/10 04:57:26;;;;;;;28.90;21.75;;;18.90;99.90;;;;;;5059220;28;20103;-69
2021/09/10 04:59:53;;;;;;;31.60;23.25;;;18.90;99.90;;;;;;5046341;28;20062;-69
2021/09/10 05:02:19;;;;;;;30.03;21.67;;;18.90;99.90;;;;;;5051300;28;20052;-69
2021/09/10 05:04:45;;;;;;;30.13;22.63;;;19.00;99.90;;;;;;5050126;28;20336;-69
2021/09/10 05:07:11;;;;;;;31.90;22.52;;;19.00;99.90;;;;;;5052590;28;20040;-69
2021/09/10 05:09:36;;;;;;;31.50;21.85;;;19.00;99.90;;;;;;5053574;28;20065;-69
2021/09/10 05:12:03;;;;;;;27.38;21.75;;;19.00;99.90;;;;;;5048878;28;20058;-69
2021/09/10 05:14:30;;;;;;;33.22;22.83;;;19.10;99.90;;;;;;5056589;28;20049;-69
2021/09/10 05:16:55;;;;;;;25.55;21.20;;;19.10;99.90;;;;;;5046042;28;20061;-69
2021/09/10 05:19:21;;;;;;;28.17;22.70;;;19.20;99.90;;;;;;5059162;28;20805;-69
2021/09/10 05:21:47;;;;;;;31.17;22.73;;;19.20;99.90;;;;;;5044225;28;20091;-69
2021/09/10 05:24:13;;;;;;;31.38;22.65;;;19.20;99.90;;;;;;5059024;28;20073;-69
2021/09/10 05:26:38;;;;;;;33.67;24.52;;;19.20;99.90;;;;;;5043817;28;20045;-69
2021/09/10 05:29:04;;;;;;;32.53;23.63;;;19.30;99.90;;;;;;5056795;28;20091;-69
2021/09/10 05:31:30;;;;;;;35.47;25.15;;;19.30;99.90;;;;;;5032062;28;20057;-69
2021/09/10 05:33:55;;;;;;;34.40;24.58;;;19.30;99.90;;;;;;5038203;28;20101;-69
2021/09/10 05:36:21;;;;;;;34.50;24.02;;;19.30;99.90;;;;;;5058034;28;20406;-68
2021/09/10 05:38:47;;;;;;;33.28;25.30;;;19.30;99.90;;;;;;5047286;28;20041;-69
2021/09/10 05:41:13;;;;;;;37.58;25.33;;;19.30;99.90;;;;;;5061296;28;20044;-68
2021/09/10 05:43:39;;;;;;;35.80;25.35;;;19.20;99.90;;;;;;5047643;28;20063;-68
2021/09/10 05:46:04;;;;;;;41.22;26.80;;;19.10;99.90;;;;;;5061274;28;20041;-69
2021/09/10 05:48:30;;;;;;;38.20;26.52;;;19.10;99.90;;;;;;5046763;28;20127;-68
2021/09/10 05:50:56;;;;;;;43.58;26.58;;;19.00;99.90;;;;;;5054032;28;20088;-68
2021/09/10 05:53:22;;;;;;;38.78;27.25;;;19.00;99.90;;;;;;5042188;28;20100;-68
2021/09/10 05:55:48;;;;;;;41.08;30.27;;;19.00;99.90;;;;;;5059725;28;20121;-69
2021/09/10 05:58:14;;;;;;;41.50;29.92;;;18.90;99.90;;;;;;5046753;28;20088;-68
2021/09/10 06:00:39;;;;;;;49.47;30.52;;;18.90;99.90;;;;;;5056993;28;20052;-69
2021/09/10 06:03:06;;;;;;;41.85;32.60;;;18.90;99.90;;;;;;5050393;28;20046;-68
2021/09/10 06:05:32;;;;;;;47.42;35.38;;;18.80;99.90;;;;;;5054265;28;20041;-69
2021/09/10 06:07:58;;;;;;;41.70;31.42;;;18.90;99.90;;;;;;5053614;28;20049;-68
2021/09/10 06:10:24;;;;;;;49.97;35.08;;;18.80;99.90;;;;;;5050457;28;20034;-69
2021/09/10 06:12:51;;;;;;;50.25;33.60;;;18.90;99.90;;;;;;5057214;28;20041;-68
2021/09/10 06:15:17;;;;;;;47.42;33.22;;;18.90;99.90;;;;;;5046638;28;20041;-68
2021/09/10 06:17:43;;;;;;;45.53;32.83;;;18.80;99.90;;;;;;5032750;28;20051;-68
2021/09/10 06:20:10;;;;;;;45.95;32.53;;;18.80;99.90;;;;;;5045880;28;20087;-68
2021/09/10 06:22:36;;;;;;;55.65;34.97;;;18.80;99.90;;;;;;5055324;28;20069;-68
2021/09/10 06:25:04;;;;;;;42.08;30.63;;;18.80;99.90;;;;;;5045101;28;20037;-69
2021/09/10 06:27:31;;;;;;;49.08;35.42;;;18.80;99.90;;;;;;5057411;28;20127;-68
2021/09/10 06:29:57;;;;;;;49.90;35.67;;;18.80;99.90;;;;;;5041521;28;20413;-69
2021/09/10 06:32:24;;;;;;;47.50;33.97;;;18.90;99.90;;;;;;5041928;28;20045;-69
2021/09/10 06:34:54;;;;;;;53.90;34.90;;;18.90;99.90;;;;;;5046224;28;20048;-69
2021/09/10 06:37:20;;;;;;;50.47;34.47;;;18.90;99.90;;;;;;5047567;28;20327;-69
2021/09/10 06:39:47;;;;;;;49.55;35.42;;;18.90;99.90;;;;;;5052773;28;20050;-68
2021/09/10 06:42:13;;;;;;;49.13;34.90;;;18.90;99.90;;;;;;5048351;28;20049;-68
2021/09/10 06:44:39;;;;;;;47.47;33.28;;;18.90;99.90;;;;;;5048524;28;20046;-68
2021/09/10 06:47:05;;;;;;;46.58;33.80;;;18.90;99.90;;;;;;5041823;28;20037;-68
2021/09/10 06:49:32;;;;;;;46.95;33.00;;;19.00;99.90;;;;;;5061951;28;20045;-68
2021/09/10 06:51:58;;;;;;;48.40;34.40;;;19.00;99.90;;;;;;5046968;28;20079;-68
2021/09/10 06:54:24;;;;;;;47.20;32.30;;;19.00;99.90;;;;;;5057726;28;20045;-69
2021/09/10 06:56:49;;;;;;;51.05;32.55;;;19.10;99.90;;;;;;5049780;28;20448;-69
2021/09/10 06:59:19;;;;;;;44.63;31.30;;;19.10;99.90;;;;;;5047194;28;20192;-68
2021/09/10 07:01:46;;;;;;;48.95;33.30;;;19.20;99.90;;;;;;5044726;28;20060;-68
2021/09/10 07:04:12;;;;;;;45.47;29.80;;;19.20;99.90;;;;;;5050074;28;20082;-68
2021/09/10 07:06:38;;;;;;;44.78;31.05;;;19.30;99.90;;;;;;5045008;28;20056;-71
2021/09/10 07:09:04;;;;;;;47.55;30.65;;;19.30;99.90;;;;;;5057735;28;20033;-71
2021/09/10 07:11:32;;;;;;;48.35;31.05;;;19.40;99.90;;;;;;5050052;28;20045;-71
2021/09/10 07:13:59;;;;;;;46.00;33.40;;;19.40;99.90;;;;;;5038336;28;20056;-72
2021/09/10 07:16:25;;;;;;;44.67;33.50;;;19.50;99.90;;;;;;5040649;28;20041;-71
2021/09/10 07:18:51;;;;;;;47.63;31.83;;;19.50;99.90;;;;;;5045863;28;20084;-71
2021/09/10 07:21:16;;;;;;;39.97;30.35;;;19.60;99.90;;;;;;5043630;28;20630;-71
2021/09/10 07:23:43;;;;;;;44.30;32.47;;;19.60;99.90;;;;;;5040261;28;20052;-72
2021/09/10 07:26:09;;;;;;;43.08;32.50;;;19.70;99.90;;;;;;5045646;28;20056;-72
2021/09/10 07:28:36;;;;;;;41.03;31.02;;;19.80;99.90;;;;;;5047353;28;20067;-72
2021/09/10 07:31:04;;;;;;;41.17;32.15;;;19.90;99.90;;;;;;5048561;28;20045;-72
2021/09/10 07:33:29;;;;;;;;;;;20.00;99.90;;;;;;5047699;28;20088;-72
2021/09/10 07:35:55;;;;;;;45.25;31.83;;;20.10;99.90;;;;;;5046555;28;19933;-72
2021/09/10 07:38:21;;;;;;;38.25;29.48;;;20.20;99.90;;;;;;5057902;28;20048;-72
2021/09/10 07:40:47;;;;;;;34.70;28.88;;;20.20;99.90;;;;;;5041379;28;20049;-72
2021/09/10 07:43:13;;;;;;;41.92;32.17;;;20.20;99.90;;;;;;5041378;28;20121;-72
2021/09/10 07:45:39;;;;;;;41.10;31.02;;;20.40;99.90;;;;;;5038291;28;20037;-65
2021/09/10 07:48:05;;;;;;;39.63;32.28;;;20.40;99.90;;;;;;5031105;28;20536;-66
2021/09/10 07:50:31;;;;;;;37.92;32.08;;;20.40;99.90;;;;;;5043907;28;20523;-66
2021/09/10 07:52:57;;;;;;;34.85;28.45;;;20.40;99.90;;;;;;5045291;28;20033;-66
2021/09/10 07:55:23;;;;;;;42.33;32.15;;;20.50;99.90;;;;;;5040928;28;20042;-66
2021/09/10 07:57:49;;;;;;;40.17;30.80;;;20.60;99.90;;;;;;5045940;28;20098;-66
2021/09/10 08:00:21;;;;;;;41.03;32.63;;;20.60;99.90;;;;;;5044514;28;20053;-66
2021/09/10 08:02:47;;;;;;;45.63;34.80;;;20.70;99.90;;;;;;5039000;28;20061;-66
2021/09/10 08:05:14;;;;;;;45.92;35.95;;;20.70;99.90;;;;;;5043448;28;20046;-66
2021/09/10 08:07:40;;;;;;;39.92;32.22;;;20.70;99.90;;;;;;5044661;28;20052;-66
2021/09/10 08:10:11;;;;;;;43.75;35.08;;;20.80;99.90;;;;;;5040533;28;20123;-66
2021/09/10 08:12:37;;;;;;;45.15;33.58;;;20.80;99.90;;;;;;5035991;28;20057;-66
2021/09/10 08:15:03;;;;;;;40.45;32.10;;;20.90;99.90;;;;;;5042283;28;20095;-66
2021/09/10 08:17:29;;;;;;;47.10;34.10;;;21.00;99.90;;;;;;5043629;28;20120;-66
2021/09/10 08:19:55;;;;;;;42.67;32.15;;;21.30;99.90;;;;;;5041534;28;20045;-66
2021/09/10 08:22:20;;;;;;;36.35;29.48;;;21.50;99.90;;;;;;5041800;28;20049;-66
2021/09/10 08:24:47;;;;;;;40.47;31.73;;;21.60;99.90;;;;;;5042675;28;20428;-66
2021/09/10 08:27:13;;;;;;;42.63;31.10;;;21.60;99.90;;;;;;5039975;28;20071;-66
2021/09/10 08:29:39;;;;;;;42.05;31.20;;;21.70;99.90;;;;;;5044883;28;20272;-66
2021/09/10 08:32:05;;;;;;;44.92;32.80;;;21.70;99.90;;;;;;5038313;28;20452;-65
2021/09/10 08:34:31;;;;;;;37.20;29.92;;;21.80;99.90;;;;;;5046364;28;20052;-66
2021/09/10 08:36:56;;;;;;;41.53;33.67;;;21.70;99.90;;;;;;5042745;28;20058;-66
2021/09/10 08:39:22;;;;;;;41.28;31.10;;;21.70;99.90;;;;;;5044275;28;20072;-66
2021/09/10 08:41:48;;;;;;;42.33;32.67;;;21.70;99.90;;;;;;5036740;28;20048;-66
2021/09/10 08:44:16;;;;;;;40.28;31.23;;;21.70;99.90;;;;;;5040076;28;20045;-65
2021/09/10 08:46:44;;;;;;;47.88;35.28;;;21.70;99.90;;;;;;5039657;28;20056;-66
2021/09/10 08:49:13;;;;;;;43.00;32.85;;;21.70;99.90;;;;;;5054427;28;20045;-66
2021/09/10 08:51:39;;;;;;;44.58;34.53;;;21.70;99.90;;;;;;5042122;28;20045;-66
2021/09/10 08:54:04;;;;;;;40.53;31.80;;;21.70;99.90;;;;;;5038132;28;20386;-66
2021/09/10 08:56:30;;;;;;;45.88;35.45;;;21.70;99.90;;;;;;5044211;28;20053;-66
2021/09/10 08:59:10;;;;;;;45.28;33.92;;;21.70;99.90;;;;;;5038703;28;20045;-66
2021/09/10 09:01:50;;;;;;;51.30;33.97;;;21.70;99.90;;;;;;5042078;28;20080;-66
2021/09/10 09:04:16;;;;;;;48.85;36.55;;;21.70;99.90;;;;;;5037940;28;20038;-66
2021/09/10 09:06:42;;;;;;;46.08;31.08;;;21.60;99.90;;;;;;5035329;28;20038;-66
2021/09/10 09:09:07;;;;;;;44.95;34.95;;;21.40;99.90;;;;;;5034799;28;20100;-71
2021/09/10 09:11:33;;;;;;;53.20;37.50;;;21.50;99.90;;;;;;5040068;28;20049;-60
2021/09/10 09:14:03;;;;;;;52.78;37.90;;;21.40;99.90;;;;;;5037027;28;20056;-64
2021/09/10 09:16:30;;;;;;;52.42;38.15;;;21.40;99.90;;;;;;5028319;28;20046;-62
2021/09/10 09:19:01;;;;;;;60.50;39.33;;;21.30;99.90;;;;;;5041063;28;20045;-65
2021/09/10 09:21:36;;;;;;;52.55;38.55;;;21.30;99.90;;;;;;5045416;28;20061;-63
2021/09/10 09:24:13;;;;;;;50.08;37.28;;;21.40;99.90;;;;;;5036703;28;20132;-62
2021/09/10 09:26:40;;;;;;;50.80;38.45;;;21.40;99.90;;;;;;5041885;28;20045;-61
2021/09/10 09:29:09;;;;;;;57.80;39.10;;;21.50;99.90;;;;;;5047762;28;20096;-62
2021/09/10 09:31:35;;;;;;;51.05;38.33;;;21.50;99.90;;;;;;5044361;28;20462;-61
2021/09/10 09:34:02;;;;;;;54.42;39.45;;;21.50;99.90;;;;;;5041280;28;20046;-63
2021/09/10 09:36:28;;;;;;;50.33;36.65;;;21.50;99.90;;;;;;5042326;28;20073;-62
2021/09/10 09:38:55;;;;;;;53.60;38.10;;;21.60;99.90;;;;;;5040822;28;20080;-62
2021/09/10 09:41:22;;;;;;;45.88;35.45;;;21.60;99.90;;;;;;5040863;28;20352;-62
2021/09/10 09:43:51;;;;;;;53.60;37.70;;;21.60;99.90;;;;;;5042975;28;20041;-59
2021/09/10 09:46:22;;;;;;;45.60;35.75;;;21.60;99.90;;;;;;5046803;28;20044;-60
2021/09/10 09:48:51;;;;;;;44.40;34.83;;;21.60;99.90;;;;;;5036470;28;20458;-61
2021/09/10 09:51:20;;;;;;;46.20;34.10;;;21.70;99.90;;;;;;5038866;28;20517;-61
2021/09/10 09:53:47;;;;;;;44.90;34.67;;;21.80;99.90;;;;;;5039637;28;20053;-61
2021/09/10 09:56:13;;;;;;;46.97;32.90;;;21.90;99.90;;;;;;5039413;28;20045;-61
2021/09/10 09:58:42;;;;;;;52.45;34.25;;;21.90;99.90;;;;;;5038056;28;20119;-59
2021/09/10 10:01:11;;;;;;;45.67;33.25;;;22.00;99.90;;;;;;5041405;28;20045;-62
2021/09/10 10:03:40;;;;;;;48.28;32.95;;;21.90;99.90;;;;;;5045695;28;20041;-62
2021/09/10 10:06:24;;;;;;;46.53;32.22;;;22.00;99.90;;;;;;5039322;28;20049;-61
2021/09/10 10:09:10;;;;;;;44.28;33.50;;;22.00;99.90;;;;;;5035990;28;20068;-62
2021/09/10 10:11:44;;;;;;;41.47;32.22;;;22.00;99.90;;;;;;5048277;28;20041;-61
2021/09/10 10:14:14;;;;;;;52.35;36.00;;;22.00;99.90;;;;;;5035354;28;20104;-62
2021/09/10 10:16:45;;;;;;;49.45;32.95;;;22.10;99.90;;;;;;5046887;28;20052;-61
2021/09/10 10:19:20;;;;;;;48.15;35.35;;;22.00;99.90;;;;;;5045677;28;20087;-61
2021/09/10 10:21:52;;;;;;;50.60;35.53;;;21.80;99.90;;;;;;5043075;28;20120;-62
2021/09/10 10:24:51;;;;;;;50.83;37.35;;;21.80;99.90;;;;;;5046487;28;20104;-63
2021/09/10 10:27:30;;;;;;;50.53;35.17;;;21.80;99.90;;;;;;5038239;28;20049;-61
2021/09/10 10:29:56;;;;;;;57.20;36.90;;;21.90;99.90;;;;;;5044591;28;20082;-62
2021/09/10 10:32:29;;;;;;;48.38;35.30;;;21.90;99.90;;;;;;5042178;28;20097;-61
2021/09/10 10:35:18;;;;;;;54.35;35.70;;;22.00;99.90;;;;;;5045093;28;20048;-60
2021/09/10 10:37:48;;;;;;;50.47;34.70;;;22.00;99.90;;;;;;5044167;28;20053;-60
2021/09/10 10:40:25;;;;;;;45.28;31.90;;;22.10;99.90;;;;;;5045779;28;20041;-60
2021/09/10 10:42:52;;;;;;;39.42;28.48;;;22.20;99.90;;;;;;5042808;28;20076;-62
2021/09/10 10:45:40;;;;;;;33.63;25.95;;;22.20;99.90;;;;;;5046324;28;20101;-58
2021/09/10 10:48:34;;;;;;;43.67;33.53;;;22.40;99.90;;;;;;5047010;28;20079;-60
2021/09/10 10:51:21;;;;;;;32.22;25.08;;;22.40;99.90;;;;;;5046437;28;20463;-61
2021/09/10 10:53:46;;;;;;;47.67;32.13;;;22.50;99.90;;;;;;5039131;28;20057;-59
2021/09/10 10:56:24;;;;;;;38.85;27.23;;;22.50;99.90;;;;;;5048889;28;20183;-59
2021/09/10 10:59:11;;;;;;;51.63;31.70;;;22.60;99.90;;;;;;5048582;28;20081;-62
2021/09/10 11:02:15;;;;;;;48.72;35.22;;;22.50;99.90;;;;;;5048208;28;20412;-58
2021/09/10 11:04:41;;;;;;;46.30;34.10;;;22.40;99.90;;;;;;5046951;28;20038;-58
2021/09/10 11:07:08;;;;;;;49.20;34.00;;;22.40;99.90;;;;;;5048937;28;20052;-58
2021/09/10 11:09:33;;;;;;;42.75;33.15;;;22.40;99.90;;;;;;5050186;28;20966;-57
2021/09/10 11:11:59;;;;;;;44.42;32.63;;;22.40;99.90;;;;;;5044231;28;20042;-56
2021/09/10 11:14:37;;;;;;;43.08;32.90;;;22.50;99.90;;;;;;5045582;28;20049;-58
2021/09/10 11:17:13;;;;;;;;;;;22.50;99.90;;;;;;5042917;28;20049;-57
2021/09/10 11:19:45;;;;;;;39.45;28.50;;;22.50;99.90;;;;;;5044792;28;19921;-57
2021/09/10 11:22:11;;;;;;;45.03;32.28;;;22.50;99.90;;;;;;5045157;28;20104;-58
2021/09/10 11:24:36;;;;;;;46.72;31.08;;;22.50;99.90;;;;;;5046241;28;20056;-58
2021/09/10 11:27:03;;;;;;;41.90;31.77;;;22.50;99.90;;;;;;5049906;28;20067;-58
2021/09/10 11:29:38;;;;;;;38.72;28.35;;;22.70;99.90;;;;;;5054089;28;20493;-59
2021/09/10 11:32:21;;;;;;;40.00;28.27;;;22.90;99.90;;;;;;5048528;28;20045;-58
2021/09/10 11:34:47;;;;;;;37.92;28.30;;;23.10;99.90;;;;;;5041384;28;20066;-59
2021/09/10 11:37:12;;;;;;;38.47;31.65;;;23.40;99.90;;;;;;5046797;28;20052;-58
2021/09/10 11:39:44;;;;;;;43.70;30.73;;;23.40;99.90;;;;;;5042638;28;20128;-59
2021/09/10 11:42:10;;;;;;;39.67;31.30;;;23.60;99.90;;;;;;5035792;28;20068;-58
2021/09/10 11:44:37;;;;;;;40.03;27.40;;;23.50;99.90;;;;;;5045751;28;20041;-64
2021/09/10 11:47:03;;;;;;;32.58;27.65;;;23.80;99.90;;;;;;5042470;28;20107;-59
2021/09/10 11:49:29;;;;;;;36.22;29.17;;;23.70;99.90;;;;;;5044749;28;20056;-59
2021/09/10 11:51:55;;;;;;;31.67;27.42;;;23.80;99.90;;;;;;5039229;28;20045;-61
2021/09/10 11:54:21;;;;;;;33.67;26.45;;;24.00;99.90;;;;;;5047732;28;20402;-60
2021/09/10 11:56:48;;;;;;;29.00;25.25;;;24.10;99.90;;;;;;5051262;28;20049;-59
2021/09/10 11:59:19;;;;;;;34.63;27.35;;;24.20;99.90;;;;;;5046943;28;20056;-60
2021/09/10 12:01:45;;;;;;;30.38;26.63;;;24.30;99.90;;;;;;5048133;28;20045;-59
2021/09/10 12:04:24;;;;;;;30.13;25.83;;;24.40;99.90;;;;;;5049375;28;20060;-59
2021/09/10 12:06:53;;;;;;;31.35;26.90;;;24.40;99.90;;;;;;5052489;28;20040;-64
2021/09/10 12:09:19;;;;;;;29.23;25.95;;;24.30;99.90;;;;;;5043783;28;20041;-59
2021/09/10 12:12:15;;;;;;;33.55;27.50;;;24.30;99.90;;;;;;5043595;28;20072;-59
2021/09/10 12:14:43;;;;;;;25.00;21.88;;;24.50;99.90;;;;;;5044100;28;20099;-59
2021/09/10 12:17:16;;;;;;;28.67;23.65;;;24.70;99.90;;;;;;5051650;28;20079;-59
2021/09/10 12:19:51;;;;;;;24.73;22.08;;;25.00;99.90;;;;;;5043926;28;20080;-58
2021/09/10 12:22:49;;;;;;;27.35;24.40;;;25.10;99.90;;;;;;5045292;28;20117;-58
2021/09/10 12:25:20;;;;;;;30.70;27.30;;;25.20;99.90;;;;;;5037001;28;20084;-60
2021/09/10 12:27:47;;;;;;;29.20;25.83;;;24.90;99.90;;;;;;5051609;28;20037;-58
2021/09/10 12:30:18;;;;;;;30.02;25.35;;;24.80;99.90;;;;;;5047866;28;20404;-56